Inverness, United Kingdom
Current Conditions -  °F | °C
As of 4:50 PM on Saturday 25 Oct 2014 (Local Time) from EGPE Reporting Station
Few Clouds Few Clouds  
Wind Chill: 52°   Ceiling: Unl
Heat Index: 52°   Visibility: 6mi
Dew Point: 43°   Wind: 24mph
Humidity: 71%   Direction: 210°SSW
Pressure: 29.44"   Gusts: NA
Location:  57.48°N, 4.23°W
Report Text: EGPE 251550Z 21021KT 9999 FEW020 FEW045CB 11/06 Q0997
Loading
Personal Weather Stations






























Interactive Weather Map
Tropical Storm Tracking
New forecast layout! Learn more

10-Day Weather Forecast

Advertisements
Track Severe Weather on mobile